sensor_id;sensor_type;location;lat;lon;timestamp;pressure;altitude;pressure_sealevel;temperature;humidity
63568;BME280;49715;42.386;20.434;2022-09-09T00:02:02;97341.28;;;23.25;40.75
63568;BME280;49715;42.386;20.434;2022-09-09T00:04:36;97332.41;;;23.25;40.52
63568;BME280;49715;42.386;20.434;2022-09-09T00:07:05;97339.53;;;23.31;40.47
63568;BME280;49715;42.386;20.434;2022-09-09T00:17:40;97316.50;;;23.35;39.66
63568;BME280;49715;42.386;20.434;2022-09-09T00:20:16;97317.75;;;23.32;39.66
63568;BME280;49715;42.386;20.434;2022-09-09T00:22:49;97312.53;;;23.26;39.62
63568;BME280;49715;42.386;20.434;2022-09-09T00:25:28;97324.22;;;23.31;39.10
63568;BME280;49715;42.386;20.434;2022-09-09T00:27:57;97329.47;;;23.26;39.25
63568;BME280;49715;42.386;20.434;2022-09-09T00:30:26;97324.91;;;23.27;38.98
63568;BME280;49715;42.386;20.434;2022-09-09T00:32:55;97332.41;;;23.25;39.09
63568;BME280;49715;42.386;20.434;2022-09-09T00:35:31;97323.63;;;23.18;39.13
63568;BME280;49715;42.386;20.434;2022-09-09T00:38:23;97328.41;;;23.16;38.92
63568;BME280;49715;42.386;20.434;2022-09-09T00:41:21;97318.94;;;23.13;39.37
63568;BME280;49715;42.386;20.434;2022-09-09T00:43:57;97318.59;;;23.09;39.38
63568;BME280;49715;42.386;20.434;2022-09-09T00:49:29;97328.88;;;23.01;39.28
63568;BME280;49715;42.386;20.434;2022-09-09T00:57:35;97332.13;;;22.91;39.55
63568;BME280;49715;42.386;20.434;2022-09-09T01:02:56;97335.47;;;22.86;39.64
63568;BME280;49715;42.386;20.434;2022-09-09T01:07:58;97323.19;;;22.79;39.92
63568;BME280;49715;42.386;20.434;2022-09-09T01:11:01;97331.50;;;22.77;39.55
63568;BME280;49715;42.386;20.434;2022-09-09T01:13:27;97322.84;;;22.75;39.71
63568;BME280;49715;42.386;20.434;2022-09-09T01:15:59;97327.63;;;22.73;39.57
63568;BME280;49715;42.386;20.434;2022-09-09T01:18:29;97318.38;;;22.69;39.23
63568;BME280;49715;42.386;20.434;2022-09-09T01:24:08;97334.41;;;22.76;38.06
63568;BME280;49715;42.386;20.434;2022-09-09T01:26:57;97321.34;;;22.79;38.51
63568;BME280;49715;42.386;20.434;2022-09-09T01:29:26;97313.97;;;22.86;38.57
63568;BME280;49715;42.386;20.434;2022-09-09T01:34:31;97308.53;;;22.93;38.47
63568;BME280;49715;42.386;20.434;2022-09-09T01:37:06;97317.56;;;22.99;38.58
63568;BME280;49715;42.386;20.434;2022-09-09T01:39:36;97318.69;;;23.03;38.69
63568;BME280;49715;42.386;20.434;2022-09-09T01:42:09;97318.69;;;23.03;38.76
63568;BME280;49715;42.386;20.434;2022-09-09T01:44:38;97308.56;;;23.05;38.96
63568;BME280;49715;42.386;20.434;2022-09-09T01:47:05;97309.72;;;23.09;38.64
63568;BME280;49715;42.386;20.434;2022-09-09T01:49:32;97302.81;;;23.13;38.83
63568;BME280;49715;42.386;20.434;2022-09-09T01:52:03;97317.09;;;23.13;39.03
63568;BME280;49715;42.386;20.434;2022-09-09T01:54:35;97309.34;;;23.17;38.96
63568;BME280;49715;42.386;20.434;2022-09-09T02:02:32;97307.84;;;23.21;39.15
63568;BME280;49715;42.386;20.434;2022-09-09T02:05:37;97300.34;;;23.11;39.02
63568;BME280;49715;42.386;20.434;2022-09-09T02:08:22;97306.47;;;23.19;39.03
63568;BME280;49715;42.386;20.434;2022-09-09T02:13:37;97298.59;;;23.17;38.99
63568;BME280;49715;42.386;20.434;2022-09-09T02:16:13;97304.78;;;23.18;38.91
63568;BME280;49715;42.386;20.434;2022-09-09T02:18:59;97301.06;;;23.19;38.74
63568;BME280;49715;42.386;20.434;2022-09-09T02:21:45;97287.03;;;23.17;38.85
63568;BME280;49715;42.386;20.434;2022-09-09T02:24:15;97295.69;;;23.19;38.87
63568;BME280;49715;42.386;20.434;2022-09-09T02:26:51;97291.97;;;23.20;39.03
63568;BME280;49715;42.386;20.434;2022-09-09T02:29:22;97294.03;;;23.18;38.89
63568;BME280;49715;42.386;20.434;2022-09-09T02:31:52;97279.09;;;23.10;38.77
63568;BME280;49715;42.386;20.434;2022-09-09T02:34:26;97285.28;;;23.10;39.14
63568;BME280;49715;42.386;20.434;2022-09-09T02:36:55;97284.47;;;23.10;39.18
63568;BME280;49715;42.386;20.434;2022-09-09T02:39:23;97287.03;;;23.05;39.24
63568;BME280;49715;42.386;20.434;2022-09-09T02:41:51;97297.78;;;23.05;39.42
63568;BME280;49715;42.386;20.434;2022-09-09T02:44:27;97299.19;;;22.96;39.41
63568;BME280;49715;42.386;20.434;2022-09-09T02:58:09;97335.78;;;22.67;40.06
63568;BME280;49715;42.386;20.434;2022-09-09T03:00:39;97325.97;;;22.60;40.35
63568;BME280;49715;42.386;20.434;2022-09-09T03:03:07;97319.66;;;22.55;40.51
63568;BME280;49715;42.386;20.434;2022-09-09T03:05:37;97315.09;;;22.55;40.61
63568;BME280;49715;42.386;20.434;2022-09-09T03:08:04;97313.31;;;22.49;40.99
63568;BME280;49715;42.386;20.434;2022-09-09T03:10:36;97311.09;;;22.46;40.86
63568;BME280;49715;42.386;20.434;2022-09-09T03:13:04;97319.16;;;22.46;41.03
63568;BME280;49715;42.386;20.434;2022-09-09T03:15:35;97298.44;;;22.35;41.14
63568;BME280;49715;42.386;20.434;2022-09-09T03:18:03;97305.91;;;22.33;41.30
63568;BME280;49715;42.386;20.434;2022-09-09T03:20:30;97308.22;;;22.29;41.33
63568;BME280;49715;42.386;20.434;2022-09-09T03:22:59;97303.41;;;22.20;41.32
63568;BME280;49715;42.386;20.434;2022-09-09T03:25:26;97297.31;;;22.13;41.56
63568;BME280;49715;42.386;20.434;2022-09-09T03:27:54;97294.00;;;22.10;41.65
63568;BME280;49715;42.386;20.434;2022-09-09T03:30:26;97295.13;;;22.03;41.67
63568;BME280;49715;42.386;20.434;2022-09-09T03:32:55;97292.41;;;21.91;41.73
63568;BME280;49715;42.386;20.434;2022-09-09T03:35:23;97305.44;;;21.88;41.75
63568;BME280;49715;42.386;20.434;2022-09-09T03:37:49;97322.59;;;21.87;42.02
63568;BME280;49715;42.386;20.434;2022-09-09T03:40:16;97298.13;;;21.76;42.16
63568;BME280;49715;42.386;20.434;2022-09-09T03:42:47;97305.06;;;21.84;41.99
63568;BME280;49715;42.386;20.434;2022-09-09T03:45:16;97311.03;;;21.86;42.26
63568;BME280;49715;42.386;20.434;2022-09-09T03:47:43;97320.06;;;21.92;42.27
63568;BME280;49715;42.386;20.434;2022-09-09T03:50:10;97323.56;;;21.92;42.38
63568;BME280;49715;42.386;20.434;2022-09-09T03:52:42;97321.09;;;21.91;42.13
63568;BME280;49715;42.386;20.434;2022-09-09T03:55:15;97320.66;;;21.94;42.29
63568;BME280;49715;42.386;20.434;2022-09-09T03:57:41;97319.91;;;21.87;42.48
63568;BME280;49715;42.386;20.434;2022-09-09T04:00:09;97321.56;;;21.88;42.52
63568;BME280;49715;42.386;20.434;2022-09-09T04:02:50;97317.91;;;21.82;42.69
63568;BME280;49715;42.386;20.434;2022-09-09T04:05:20;97321.84;;;21.79;42.93
63568;BME280;49715;42.386;20.434;2022-09-09T04:07:47;97321.13;;;21.72;43.00
63568;BME280;49715;42.386;20.434;2022-09-09T04:10:14;97323.19;;;21.70;43.03
63568;BME280;49715;42.386;20.434;2022-09-09T04:12:42;97326.34;;;21.67;42.94
63568;BME280;49715;42.386;20.434;2022-09-09T04:15:09;97322.06;;;21.59;43.07
63568;BME280;49715;42.386;20.434;2022-09-09T04:17:37;97298.59;;;21.55;43.02
63568;BME280;49715;42.386;20.434;2022-09-09T04:20:05;97303.59;;;21.51;43.08
63568;BME280;49715;42.386;20.434;2022-09-09T04:22:32;97306.13;;;21.46;43.19
63568;BME280;49715;42.386;20.434;2022-09-09T04:25:01;97309.63;;;21.47;43.16
63568;BME280;49715;42.386;20.434;2022-09-09T04:27:28;97302.63;;;21.46;43.28
63568;BME280;49715;42.386;20.434;2022-09-09T04:29:55;97299.13;;;21.45;43.36
63568;BME280;49715;42.386;20.434;2022-09-09T04:32:26;97281.03;;;21.41;43.37
63568;BME280;49715;42.386;20.434;2022-09-09T04:34:56;97307.56;;;21.49;43.43
63568;BME280;49715;42.386;20.434;2022-09-09T04:37:23;97300.75;;;21.46;43.32
63568;BME280;49715;42.386;20.434;2022-09-09T04:39:51;97314.41;;;21.45;43.30
63568;BME280;49715;42.386;20.434;2022-09-09T04:42:17;97318.94;;;21.44;43.76
63568;BME280;49715;42.386;20.434;2022-09-09T04:44:46;97320.50;;;21.33;44.06
63568;BME280;49715;42.386;20.434;2022-09-09T04:47:12;97336.59;;;21.27;44.18
63568;BME280;49715;42.386;20.434;2022-09-09T04:49:39;97341.97;;;21.27;44.54
63568;BME280;49715;42.386;20.434;2022-09-09T04:52:06;97335.03;;;21.19;45.06
63568;BME280;49715;42.386;20.434;2022-09-09T04:54:35;97334.88;;;21.14;45.62
63568;BME280;49715;42.386;20.434;2022-09-09T04:57:01;97329.56;;;21.07;45.97
63568;BME280;49715;42.386;20.434;2022-09-09T04:59:28;97320.78;;;21.00;46.29
63568;BME280;49715;42.386;20.434;2022-09-09T05:01:57;97333.38;;;20.93;46.67
63568;BME280;49715;42.386;20.434;2022-09-09T05:04:23;97347.88;;;20.86;47.09
63568;BME280;49715;42.386;20.434;2022-09-09T05:06:50;97350.41;;;20.74;47.65
63568;BME280;49715;42.386;20.434;2022-09-09T05:09:16;97362.63;;;20.70;48.24
63568;BME280;49715;42.386;20.434;2022-09-09T05:11:44;97350.91;;;20.64;48.48
63568;BME280;49715;42.386;20.434;2022-09-09T05:14:18;97364.09;;;20.66;48.64
63568;BME280;49715;42.386;20.434;2022-09-09T05:16:45;97365.56;;;20.62;48.91
63568;BME280;49715;42.386;20.434;2022-09-09T05:19:11;97371.34;;;20.58;49.09
63568;BME280;49715;42.386;20.434;2022-09-09T05:21:47;97384.31;;;20.62;49.30
63568;BME280;49715;42.386;20.434;2022-09-09T05:24:16;97374.88;;;20.52;49.66
63568;BME280;49715;42.386;20.434;2022-09-09T05:26:46;97371.78;;;20.55;49.96
63568;BME280;49715;42.386;20.434;2022-09-09T05:29:12;97375.88;;;20.58;49.94
63568;BME280;49715;42.386;20.434;2022-09-09T05:31:39;97369.94;;;20.49;50.46
63568;BME280;49715;42.386;20.434;2022-09-09T05:34:10;97374.25;;;20.57;50.54
63568;BME280;49715;42.386;20.434;2022-09-09T05:36:37;97377.69;;;20.64;50.83
63568;BME280;49715;42.386;20.434;2022-09-09T05:39:28;97370.91;;;20.62;51.73
63568;BME280;49715;42.386;20.434;2022-09-09T05:41:54;97372.56;;;20.63;51.19
63568;BME280;49715;42.386;20.434;2022-09-09T05:44:21;97389.84;;;20.67;51.35
63568;BME280;49715;42.386;20.434;2022-09-09T05:46:53;97391.69;;;20.66;51.61
63568;BME280;49715;42.386;20.434;2022-09-09T05:49:21;97395.59;;;20.70;51.55
63568;BME280;49715;42.386;20.434;2022-09-09T05:51:49;97391.06;;;20.71;51.86
63568;BME280;49715;42.386;20.434;2022-09-09T05:54:18;97396.19;;;20.72;52.04
63568;BME280;49715;42.386;20.434;2022-09-09T05:56:54;97386.50;;;20.71;52.15
63568;BME280;49715;42.386;20.434;2022-09-09T05:59:21;97384.88;;;20.70;52.09
63568;BME280;49715;42.386;20.434;2022-09-09T06:01:50;97377.03;;;20.69;52.39
63568;BME280;49715;42.386;20.434;2022-09-09T06:04:25;97383.59;;;20.73;52.13
63568;BME280;49715;42.386;20.434;2022-09-09T06:06:52;97386.09;;;20.74;52.16
63568;BME280;49715;42.386;20.434;2022-09-09T06:09:21;97385.03;;;20.75;52.28
63568;BME280;49715;42.386;20.434;2022-09-09T06:11:48;97377.69;;;20.64;52.18
63568;BME280;49715;42.386;20.434;2022-09-09T06:14:15;97381.41;;;20.63;53.69
63568;BME280;49715;42.386;20.434;2022-09-09T06:16:46;97382.63;;;20.67;52.04
63568;BME280;49715;42.386;20.434;2022-09-09T06:19:19;97385.72;;;20.64;52.18
63568;BME280;49715;42.386;20.434;2022-09-09T06:21:47;97403.88;;;20.62;52.19
63568;BME280;49715;42.386;20.434;2022-09-09T06:24:15;97402.66;;;20.58;52.49
63568;BME280;49715;42.386;20.434;2022-09-09T06:26:44;97395.72;;;20.50;52.43
63568;BME280;49715;42.386;20.434;2022-09-09T06:29:13;97411.16;;;20.48;52.67
63568;BME280;49715;42.386;20.434;2022-09-09T06:31:42;97416.09;;;20.38;52.82
63568;BME280;49715;42.386;20.434;2022-09-09T06:34:23;97414.94;;;20.27;53.18
63568;BME280;49715;42.386;20.434;2022-09-09T06:36:54;97405.50;;;20.18;53.14
63568;BME280;49715;42.386;20.434;2022-09-09T06:39:21;97410.25;;;20.10;53.33
63568;BME280;49715;42.386;20.434;2022-09-09T06:41:47;97407.00;;;19.94;53.53
63568;BME280;49715;42.386;20.434;2022-09-09T06:44:41;97424.13;;;19.80;53.79
63568;BME280;49715;42.386;20.434;2022-09-09T06:47:12;97437.72;;;19.65;54.10
63568;BME280;49715;42.386;20.434;2022-09-09T06:49:40;97457.44;;;19.44;54.66
63568;BME280;49715;42.386;20.434;2022-09-09T06:52:09;97456.63;;;19.30;54.94
63568;BME280;49715;42.386;20.434;2022-09-09T06:54:36;97470.56;;;19.13;55.64
63568;BME280;49715;42.386;20.434;2022-09-09T06:57:04;97468.09;;;18.98;55.93
63568;BME280;49715;42.386;20.434;2022-09-09T06:59:34;97460.47;;;18.82;56.06
63568;BME280;49715;42.386;20.434;2022-09-09T07:02:00;97457.75;;;18.68;56.94
63568;BME280;49715;42.386;20.434;2022-09-09T07:04:28;97450.50;;;18.56;57.26
63568;BME280;49715;42.386;20.434;2022-09-09T07:06:54;97453.94;;;18.36;57.89
63568;BME280;49715;42.386;20.434;2022-09-09T07:09:23;97456.97;;;18.26;58.37
63568;BME280;49715;42.386;20.434;2022-09-09T07:11:52;97467.19;;;18.16;58.82
63568;BME280;49715;42.386;20.434;2022-09-09T07:14:21;97494.63;;;18.10;59.48
63568;BME280;49715;42.386;20.434;2022-09-09T07:16:54;97515.34;;;18.08;59.69
63568;BME280;49715;42.386;20.434;2022-09-09T07:19:20;97557.41;;;18.06;60.40
63568;BME280;49715;42.386;20.434;2022-09-09T07:21:50;97581.78;;;18.03;60.43
63568;BME280;49715;42.386;20.434;2022-09-09T07:24:19;97610.38;;;17.88;61.32
63568;BME280;49715;42.386;20.434;2022-09-09T07:26:46;97622.28;;;17.70;61.85
63568;BME280;49715;42.386;20.434;2022-09-09T07:29:14;97627.06;;;17.54;62.75
63568;BME280;49715;42.386;20.434;2022-09-09T07:31:41;97634.34;;;17.45;62.76
63568;BME280;49715;42.386;20.434;2022-09-09T07:34:14;97659.28;;;17.37;62.97
63568;BME280;49715;42.386;20.434;2022-09-09T07:36:41;97632.78;;;17.36;63.23
63568;BME280;49715;42.386;20.434;2022-09-09T07:39:12;97628.69;;;17.33;63.28
63568;BME280;49715;42.386;20.434;2022-09-09T07:41:44;97638.88;;;17.30;63.66
63568;BME280;49715;42.386;20.434;2022-09-09T07:44:15;97652.56;;;17.27;63.98
63568;BME280;49715;42.386;20.434;2022-09-09T07:46:45;97652.22;;;17.30;63.94
63568;BME280;49715;42.386;20.434;2022-09-09T07:49:15;97671.13;;;17.35;64.20
63568;BME280;49715;42.386;20.434;2022-09-09T07:51:44;97683.69;;;17.41;64.20
63568;BME280;49715;42.386;20.434;2022-09-09T07:54:15;97668.50;;;17.41;64.48
63568;BME280;49715;42.386;20.434;2022-09-09T07:56:45;97673.41;;;17.38;64.46
63568;BME280;49715;42.386;20.434;2022-09-09T07:59:13;97682.59;;;17.35;65.08
63568;BME280;49715;42.386;20.434;2022-09-09T08:01:50;97696.47;;;17.31;65.26
63568;BME280;49715;42.386;20.434;2022-09-09T08:04:25;97702.56;;;17.24;65.12
63568;BME280;49715;42.386;20.434;2022-09-09T08:06:58;97719.81;;;17.29;65.48
63568;BME280;49715;42.386;20.434;2022-09-09T08:09:26;97723.13;;;17.31;65.64
63568;BME280;49715;42.386;20.434;2022-09-09T08:12:00;97698.31;;;17.30;65.66
63568;BME280;49715;42.386;20.434;2022-09-09T08:14:28;97688.88;;;17.28;66.04
63568;BME280;49715;42.386;20.434;2022-09-09T08:16:56;97707.22;;;17.37;66.21
63568;BME280;49715;42.386;20.434;2022-09-09T08:19:26;97708.22;;;17.36;66.57
63568;BME280;49715;42.386;20.434;2022-09-09T08:21:56;97711.91;;;17.35;66.48
63568;BME280;49715;42.386;20.434;2022-09-09T08:24:23;97710.06;;;17.36;66.57
63568;BME280;49715;42.386;20.434;2022-09-09T08:26:53;97705.81;;;17.41;66.76
63568;BME280;49715;42.386;20.434;2022-09-09T08:29:23;97717.50;;;17.40;66.85
63568;BME280;49715;42.386;20.434;2022-09-09T08:31:53;97719.53;;;17.38;67.01
63568;BME280;49715;42.386;20.434;2022-09-09T08:34:21;97723.56;;;17.34;67.03
63568;BME280;49715;42.386;20.434;2022-09-09T08:36:50;97736.97;;;17.41;67.47
63568;BME280;49715;42.386;20.434;2022-09-09T08:39:23;97714.75;;;17.34;67.51
63568;BME280;49715;42.386;20.434;2022-09-09T08:42:07;97730.47;;;17.43;67.97
63568;BME280;49715;42.386;20.434;2022-09-09T08:50:35;97732.09;;;17.44;68.28
63568;BME280;49715;42.386;20.434;2022-09-09T08:53:26;97736.22;;;17.47;67.92
63568;BME280;49715;42.386;20.434;2022-09-09T08:56:24;97742.28;;;17.41;68.07
63568;BME280;49715;42.386;20.434;2022-09-09T08:58:56;97764.53;;;17.48;67.99
63568;BME280;49715;42.386;20.434;2022-09-09T09:12:59;97757.38;;;17.48;68.61
63568;BME280;49715;42.386;20.434;2022-09-09T09:15:36;97746.50;;;17.50;68.68
63568;BME280;49715;42.386;20.434;2022-09-09T09:18:05;97735.75;;;17.58;68.74
63568;BME280;49715;42.386;20.434;2022-09-09T09:20:42;97714.44;;;17.58;68.84
63568;BME280;49715;42.386;20.434;2022-09-09T09:23:45;97703.00;;;17.64;69.48
63568;BME280;49715;42.386;20.434;2022-09-09T09:26:15;97703.00;;;17.64;69.05
63568;BME280;49715;42.386;20.434;2022-09-09T09:28:42;97706.75;;;17.70;69.08
63568;BME280;49715;42.386;20.434;2022-09-09T09:31:14;97702.25;;;17.70;69.13
63568;BME280;49715;42.386;20.434;2022-09-09T09:36:16;97707.88;;;17.75;69.54
63568;BME280;49715;42.386;20.434;2022-09-09T09:41:41;97703.81;;;17.80;69.52
63568;BME280;49715;42.386;20.434;2022-09-09T09:44:29;97705.84;;;17.78;69.67
63568;BME280;49715;42.386;20.434;2022-09-09T09:47:12;97689.22;;;17.75;69.66
63568;BME280;49715;42.386;20.434;2022-09-09T09:50:00;97674.69;;;17.78;69.94
63568;BME280;49715;42.386;20.434;2022-09-09T09:52:32;97661.16;;;17.80;69.64
63568;BME280;49715;42.386;20.434;2022-09-09T09:55:03;97657.47;;;17.81;69.71
63568;BME280;49715;42.386;20.434;2022-09-09T09:57:34;97648.28;;;17.83;70.08
63568;BME280;49715;42.386;20.434;2022-09-09T10:02:50;97640.91;;;17.85;70.15
63568;BME280;49715;42.386;20.434;2022-09-09T10:08:10;97628.97;;;17.81;70.57
63568;BME280;49715;42.386;20.434;2022-09-09T10:19:15;97642.75;;;18.06;70.54
63568;BME280;49715;42.386;20.434;2022-09-09T10:40:31;97606.59;;;18.60;71.01
63568;BME280;49715;42.386;20.434;2022-09-09T10:54:35;97590.13;;;18.97;70.75
63568;BME280;49715;42.386;20.434;2022-09-09T10:57:15;97586.91;;;19.09;70.39
63568;BME280;49715;42.386;20.434;2022-09-09T10:59:50;97603.16;;;19.20;70.31
63568;BME280;49715;42.386;20.434;2022-09-09T11:02:28;97598.25;;;19.30;69.98
63568;BME280;49715;42.386;20.434;2022-09-09T11:07:54;97575.97;;;19.91;70.10
63568;BME280;49715;42.386;20.434;2022-09-09T11:10:42;97575.09;;;20.30;69.77
63568;BME280;49715;42.386;20.434;2022-09-09T11:15:50;97567.94;;;20.89;68.07
63568;BME280;49715;42.386;20.434;2022-09-09T11:18:22;97562.41;;;21.22;67.23
63568;BME280;49715;42.386;20.434;2022-09-09T11:20:53;97545.97;;;21.50;67.21
63568;BME280;49715;42.386;20.434;2022-09-09T11:23:40;97535.06;;;21.77;66.00
63568;BME280;49715;42.386;20.434;2022-09-09T11:26:15;97542.53;;;21.93;65.74
63568;BME280;49715;42.386;20.434;2022-09-09T11:34:21;97528.84;;;22.26;65.25
63568;BME280;49715;42.386;20.434;2022-09-09T11:44:38;97514.06;;;22.54;64.12
63568;BME280;49715;42.386;20.434;2022-09-09T11:49:45;97514.66;;;22.74;63.73
63568;BME280;49715;42.386;20.434;2022-09-09T11:52:35;97516.44;;;22.99;63.51
63568;BME280;49715;42.386;20.434;2022-09-09T11:55:10;97517.56;;;23.21;63.50
63568;BME280;49715;42.386;20.434;2022-09-09T11:57:38;97523.34;;;23.36;63.02
63568;BME280;49715;42.386;20.434;2022-09-09T12:00:06;97530.44;;;23.31;62.63
63568;BME280;49715;42.386;20.434;2022-09-09T12:02:48;97502.06;;;23.35;62.51
63568;BME280;49715;42.386;20.434;2022-09-09T12:05:17;97501.13;;;23.41;62.39
63568;BME280;49715;42.386;20.434;2022-09-09T12:07:57;97485.47;;;23.38;61.93
63568;BME280;49715;42.386;20.434;2022-09-09T12:10:33;97484.53;;;23.44;61.78
63568;BME280;49715;42.386;20.434;2022-09-09T12:13:22;97485.25;;;23.51;61.57
63568;BME280;49715;42.386;20.434;2022-09-09T12:15:54;97476.25;;;23.57;61.29
63568;BME280;49715;42.386;20.434;2022-09-09T12:18:31;97487.06;;;23.69;61.05
63568;BME280;49715;42.386;20.434;2022-09-09T12:26:26;97468.31;;;23.62;60.69
63568;BME280;49715;42.386;20.434;2022-09-09T12:31:55;97460.22;;;23.51;60.44
63568;BME280;49715;42.386;20.434;2022-09-09T12:34:33;97452.13;;;23.39;60.61
63568;BME280;49715;42.386;20.434;2022-09-09T12:37:14;97445.34;;;23.25;60.44
63568;BME280;49715;42.386;20.434;2022-09-09T12:39:49;97454.78;;;23.27;60.60
63568;BME280;49715;42.386;20.434;2022-09-09T12:42:21;97454.47;;;23.24;60.99
63568;BME280;49715;42.386;20.434;2022-09-09T12:44:53;97452.66;;;23.18;60.70
63568;BME280;49715;42.386;20.434;2022-09-09T12:47:26;97446.94;;;23.14;60.81
63568;BME280;49715;42.386;20.434;2022-09-09T12:49:55;97432.09;;;23.11;61.11
63568;BME280;49715;42.386;20.434;2022-09-09T12:52:35;97425.06;;;23.10;61.28
63568;BME280;49715;42.386;20.434;2022-09-09T12:55:05;97418.50;;;23.06;61.33
63568;BME280;49715;42.386;20.434;2022-09-09T12:57:36;97428.72;;;23.16;61.74
63568;BME280;49715;42.386;20.434;2022-09-09T13:00:15;97416.44;;;23.20;61.67
63568;BME280;49715;42.386;20.434;2022-09-09T13:02:52;97424.19;;;23.28;61.78
63568;BME280;49715;42.386;20.434;2022-09-09T13:05:31;97425.00;;;23.41;62.02
63568;BME280;49715;42.386;20.434;2022-09-09T13:08:02;97431.09;;;23.59;61.96
63568;BME280;49715;42.386;20.434;2022-09-09T13:10:34;97430.09;;;23.72;61.31
63568;BME280;49715;42.386;20.434;2022-09-09T13:13:02;97425.75;;;23.83;60.82
63568;BME280;49715;42.386;20.434;2022-09-09T13:15:29;97420.69;;;23.98;60.60
63568;BME280;49715;42.386;20.434;2022-09-09T13:17:58;97418.47;;;24.07;60.27
63568;BME280;49715;42.386;20.434;2022-09-09T13:20:27;97423.72;;;24.13;60.37
63568;BME280;49715;42.386;20.434;2022-09-09T13:22:55;97416.69;;;24.12;59.69
63568;BME280;49715;42.386;20.434;2022-09-09T13:25:27;97414.97;;;24.06;59.66
63568;BME280;49715;42.386;20.434;2022-09-09T13:30:36;97392.38;;;23.96;59.16
63568;BME280;49715;42.386;20.434;2022-09-09T13:35:46;97394.56;;;24.10;58.88
63568;BME280;49715;42.386;20.434;2022-09-09T13:38:16;97389.28;;;24.27;58.94
63568;BME280;49715;42.386;20.434;2022-09-09T13:41:06;97382.53;;;24.53;58.62
63568;BME280;49715;42.386;20.434;2022-09-09T13:43:37;97380.78;;;24.76;58.75
63568;BME280;49715;42.386;20.434;2022-09-09T13:46:40;97389.63;;;24.88;57.68
63568;BME280;49715;42.386;20.434;2022-09-09T13:51:42;97398.84;;;24.92;57.67
63568;BME280;49715;42.386;20.434;2022-09-09T13:54:11;97399.03;;;24.85;58.28
63568;BME280;49715;42.386;20.434;2022-09-09T13:56:39;97394.59;;;24.79;57.88
63568;BME280;49715;42.386;20.434;2022-09-09T13:59:13;97381.97;;;24.68;57.95
63568;BME280;49715;42.386;20.434;2022-09-09T14:01:40;97376.16;;;24.59;58.25
63568;BME280;49715;42.386;20.434;2022-09-09T14:04:08;97384.41;;;24.53;58.10
63568;BME280;49715;42.386;20.434;2022-09-09T14:06:35;97371.22;;;24.39;58.56
63568;BME280;49715;42.386;20.434;2022-09-09T14:09:07;97383.16;;;24.32;58.11
63568;BME280;49715;42.386;20.434;2022-09-09T14:11:35;97380.75;;;24.19;58.67
63568;BME280;49715;42.386;20.434;2022-09-09T14:14:02;97383.78;;;24.10;58.99
63568;BME280;49715;42.386;20.434;2022-09-09T14:16:28;97381.84;;;23.94;59.23
63568;BME280;49715;42.386;20.434;2022-09-09T14:18:55;97387.13;;;23.89;59.22
63568;BME280;49715;42.386;20.434;2022-09-09T14:21:23;97388.06;;;23.83;59.20
63568;BME280;49715;42.386;20.434;2022-09-09T14:23:49;97381.97;;;23.76;59.34
63568;BME280;49715;42.386;20.434;2022-09-09T14:26:16;97381.16;;;23.75;59.64
63568;BME280;49715;42.386;20.434;2022-09-09T14:28:44;97379.53;;;23.74;59.92
63568;BME280;49715;42.386;20.434;2022-09-09T14:31:12;97380.50;;;23.68;59.89
63568;BME280;49715;42.386;20.434;2022-09-09T14:33:40;97385.16;;;23.73;60.39
63568;BME280;49715;42.386;20.434;2022-09-09T14:36:06;97369.13;;;23.78;60.50
63568;BME280;49715;42.386;20.434;2022-09-09T14:38:35;97363.03;;;23.82;60.33
63568;BME280;49715;42.386;20.434;2022-09-09T14:41:06;97354.56;;;23.90;60.49
63568;BME280;49715;42.386;20.434;2022-09-09T14:43:33;97336.91;;;23.95;60.32
63568;BME280;49715;42.386;20.434;2022-09-09T14:46:07;97345.44;;;24.03;60.57
63568;BME280;49715;42.386;20.434;2022-09-09T14:48:35;97348.69;;;24.05;60.36
63568;BME280;49715;42.386;20.434;2022-09-09T14:51:09;97352.69;;;24.03;60.45
63568;BME280;49715;42.386;20.434;2022-09-09T14:53:36;97350.16;;;23.84;60.32
63568;BME280;49715;42.386;20.434;2022-09-09T14:56:09;97353.56;;;23.80;60.63
63568;BME280;49715;42.386;20.434;2022-09-09T14:58:37;97327.81;;;23.60;60.65
63568;BME280;49715;42.386;20.434;2022-09-09T15:01:08;97345.16;;;23.64;60.57
63568;BME280;49715;42.386;20.434;2022-09-09T15:03:40;97348.75;;;23.58;60.78
63568;BME280;49715;42.386;20.434;2022-09-09T15:08:35;97345.25;;;23.46;61.22
63568;BME280;49715;42.386;20.434;2022-09-09T15:11:03;97337.06;;;23.41;60.63
63568;BME280;49715;42.386;20.434;2022-09-09T15:13:30;97341.28;;;23.37;61.47
63568;BME280;49715;42.386;20.434;2022-09-09T15:16:09;97345.84;;;23.36;61.67
63568;BME280;49715;42.386;20.434;2022-09-09T15:18:36;97342.44;;;23.41;61.88
63568;BME280;49715;42.386;20.434;2022-09-09T15:21:06;97330.63;;;23.42;61.61
63568;BME280;49715;42.386;20.434;2022-09-09T15:23:33;97333.56;;;23.64;62.17
63568;BME280;49715;42.386;20.434;2022-09-09T15:26:00;97327.69;;;23.79;61.99
63568;BME280;49715;42.386;20.434;2022-09-09T15:28:27;97336.84;;;23.78;62.00
63568;BME280;49715;42.386;20.434;2022-09-09T15:30:54;97342.31;;;23.71;61.50
63568;BME280;49715;42.386;20.434;2022-09-09T15:33:22;97339.06;;;23.69;61.54
63568;BME280;49715;42.386;20.434;2022-09-09T15:35:48;97337.75;;;23.60;61.06
63568;BME280;49715;42.386;20.434;2022-09-09T15:38:16;97329.22;;;23.51;61.21
63568;BME280;49715;42.386;20.434;2022-09-09T15:40:43;97336.00;;;23.54;61.55
63568;BME280;49715;42.386;20.434;2022-09-09T15:43:09;97340.78;;;23.52;62.18
63568;BME280;49715;42.386;20.434;2022-09-09T15:45:36;97330.06;;;23.63;61.64
63568;BME280;49715;42.386;20.434;2022-09-09T15:48:03;97332.84;;;23.57;62.20